• Join FlightAware (Why Join?)
  • Login
  • US Flag 
05:36PM EDT


 

Airport Tracker/Info


-or-


 

Live Flight TrackerFlight Track Log ✈ SWA543 ✈ 27-Apr-2013 ✈ KPDX - KLAS

Flight Track Log - Related Links

Times and Time Zones

All times are in EDT time to prevent confusion due to time zone crossing. See the SWA543 flight status page for this flight to view local times or setup timezone preferences in your user account.

Time Position Orientation Groundspeed Altitude Reporting Facility
EDT Latitude Longitude Course Direction KTS MPH feet Rate Location/Type
05:08PM 45.5983 -122.6083 293° West 155 178 1,000  Level Seattle Center
05:09PM 45.6242 -122.6936 293° West 223 257 3,600 2,280 Climbing Seattle Center
05:11PM 45.6617 -122.7833 301° West 260 299 6,400 2,580 Climbing Seattle Center
05:11PM 45.6708 -122.8097 296° West 223 257 7,500 2,940 Climbing Seattle Center
05:12PM 45.6242 -122.8442 207° Southwest 246 283 10,500 2,160 Climbing Seattle Center
05:13PM 45.5567 -122.7558 137° Southeast 311 358 12,000 2,100 Climbing Seattle Center
05:14PM 45.4825 -122.6633 139° Southeast 344 396 14,800 1,980 Climbing Seattle Center
05:15PM 45.3981 -122.5583 139° Southeast 389 448 16,100 1,980 Climbing Seattle Center
05:16PM 45.3089 -122.4506 140° Southeast 416 479 18,900 2,460 Climbing Seattle Center
05:17PM 45.2214 -122.3439 139° Southeast 416 479 21,100 2,100 Climbing Seattle Center
05:18PM 45.1308 -122.2344 140° Southeast 422 486 23,200 1,860 Climbing Seattle Center
05:19PM 45.0353 -122.1314 143° Southeast 426 490 25,000 1,680 Climbing Seattle Center
05:20PM 44.9189 -122.0583 156° South 451 519 26,700 1,800 Climbing Seattle Center
05:21PM 44.7856 -121.9644 153° Southeast 442 509 28,700 1,680 Climbing Seattle Center
05:22PM 44.6939 -121.9044 155° Southeast 442 509 30,100 1,620 Climbing Seattle Center
05:23PM 44.5564 -121.8147 155° Southeast 451 519 32,000 1,620 Climbing Seattle Center
05:24PM 44.4461 -121.7417 155° Southeast 447 514 33,400 1,320 Climbing Seattle Center
05:25PM 44.3353 -121.6689 155° Southeast 444 511 34,700 1,200 Climbing Seattle Center
05:26PM 44.2244 -121.5961 155° Southeast 443 510 35,900 1,080 Climbing Seattle Center
05:27PM 44.1097 -121.5589 167° South 436 502 37,000 540 Climbing Seattle Center
05:28PM 43.9936 -121.5581 180° South 433 498 37,000  Level Seattle Center
05:29PM 43.8872 -121.4658 148° Southeast 452 520 37,000  Level Seattle Center
05:30PM 43.7892 -121.3711 145° Southeast 459 528 37,000  Level Seattle Center
05:31PM 43.6881 -121.2706 144° Southeast 449 517 37,000  Level Seattle Center
05:32PM 43.5817 -121.1836 149° Southeast 445 512 37,000  Level Seattle Center
05:33PM 43.4472 -121.1008 156° South 442 509 37,000  Level Seattle Center
05:34PM 43.3353 -121.0289 155° Southeast 443 510 37,000  Level Seattle Center
05:35PM 43.2244 -120.9614 156° South 440 506 37,000  Level Seattle Center
05:36PM 43.1122 -120.8997 158° South 439 505 37,000  Level Seattle Center
05:37PM 42.9947 -120.8403 160° South 448 516 37,000  Level Seattle Center
05:38PM 42.8794 -120.7833 160° South 444 511 37,000  Level Seattle Center
05:39PM 42.7644 -120.7258 160° South 440 506 37,000  Level Seattle Center
05:40PM 42.6539 -120.6714 160° South 429 494 37,000  Level Seattle Center
05:41PM 42.5383 -120.6133 160° South 432 497 37,000  Level Seattle Center
05:42PM 42.4217 -120.5575 161° South 437 503 37,000  Level Seattle Center
05:43PM 42.3050 -120.4992 160° South 441 507 37,000  Level Seattle Center
05:44PM 42.1900 -120.4428 160° South 441 507 37,000  Level Seattle Center
05:45PM 42.0725 -120.3864 160° South 444 511 37,000  Level Seattle Center
05:46PM 41.9561 -120.3300 160° South 444 511 37,000  Level Seattle Center
05:47PM 41.8425 -120.2731 160° South 439 505 37,000  Level Seattle Center
05:48PM 41.7289 -120.2194 161° South 433 498 37,000  Level Seattle Center
05:49PM 41.6142 -120.1647 160° South 435 501 37,000  Level Seattle Center
05:50PM 41.5000 -120.1111 161° South 434 499 37,000  Level Seattle Center
05:51PM 41.3869 -120.0575 160° South 431 496 37,000  Level Seattle Center
05:52PM 41.3186 -120.0253 160° South 431 496 37,000  Level Oakland Center
05:52PM 41.2750 -120.0033 159° South 429 494 37,000  Level Seattle Center
05:53PM 41.1625 -119.9494 160° South 428 493 37,000  Level Seattle Center
05:54PM 41.0472 -119.8972 161° South 434 499 37,000  Level Seattle Center
05:55PM 40.9408 -119.8264 153° Southeast 430 495 37,000  Level Seattle Center
05:57PM 40.8361 -119.7475 150° Southeast 431 496 37,000  Level Seattle Center
05:57PM 40.7731 -119.7000 150° Southeast 432 497 37,000  Level Oakland Center
05:58PM 40.6700 -119.6192 149° Southeast 431 496 37,000  Level Oakland Center
05:59PM 40.5658 -119.5403 150° Southeast 432 497 37,000  Level Oakland Center
06:00PM 40.4450 -119.4492 150° Southeast 429 494 37,000  Level Oakland Center
06:01PM 40.3406 -119.3706 150° Southeast 431 496 37,000  Level Oakland Center
06:02PM 40.2364 -119.2919 150° Southeast 433 498 37,000  Level Oakland Center
06:03PM 40.1336 -119.2139 150° Southeast 429 494 37,000  Level Oakland Center
06:04PM 40.0292 -119.1369 151° Southeast 429 494 37,000  Level Oakland Center
06:05PM 39.9261 -119.0592 150° Southeast 428 493 37,000  Level Oakland Center
06:06PM 39.8219 -118.9825 151° Southeast 429 494 37,000  Level Oakland Center
06:07PM 39.7181 -118.9061 151° Southeast 429 494 37,000  Level Oakland Center
06:08PM 39.5947 -118.8147 150° Southeast 425 489 37,000  Level Oakland Center
06:09PM 39.4911 -118.7389 151° Southeast 424 488 37,000  Level Oakland Center
06:10PM 39.3997 -118.6725 151° Southeast 431 496 37,000  Level Oakland Center
06:11PM 39.2975 -118.5969 150° Southeast 427 491 37,000  Level Oakland Center
06:12PM 39.1919 -118.5203 151° Southeast 426 490 37,000  Level Oakland Center
06:13PM 39.0886 -118.4453 151° Southeast 427 491 37,000  Level Oakland Center
06:14PM 38.9639 -118.3558 151° Southeast 428 493 37,000  Level Oakland Center
06:15PM 38.8608 -118.2817 151° Southeast 428 493 37,000  Level Oakland Center
06:16PM 38.7575 -118.2081 151° Southeast 425 489 37,000  Level Oakland Center
06:17PM 38.6547 -118.1317 150° Southeast 426 490 37,000  Level Oakland Center
06:18PM 38.5567 -118.0544 148° Southeast 426 490 37,000  Level Oakland Center
06:20PM 38.4542 -117.9778 150° Southeast 427 491 37,000  Level Oakland Center
06:21PM 38.3514 -117.8981 149° Southeast 433 498 37,000 -480 Level Oakland Center
06:22PM 38.2483 -117.8200 149° Southeast 434 499 36,100 -1,080 Descending Oakland Center
06:23PM 38.1244 -117.7272 149° Southeast 434 499 34,900 -1,080 Descending Oakland Center
06:24PM 38.0208 -117.6494 149° Southeast 438 504 34,000 -960 Descending Oakland Center
06:25PM 37.9186 -117.5722 149° Southeast 434 499 33,000 -540 Descending Oakland Center
06:26PM 37.8153 -117.4947 149° Southeast 435 501 33,000  Level Oakland Center
06:27PM 37.7100 -117.4175 150° Southeast 439 505 33,000  Level Oakland Center
06:27PM 37.6472 -117.3686 148° Southeast 442 509 33,000  Level Los Angeles Center
06:28PM 37.6039 -117.3383 151° Southeast 445 512 33,000  Level Oakland Center
06:29PM 37.4975 -117.2583 149° Southeast 447 514 33,000  Level Oakland Center
06:30PM 37.3881 -117.1800 150° Southeast 452 520 33,000  Level Oakland Center
06:31PM 37.2803 -117.0983 149° Southeast 453 521 33,000  Level Oakland Center
06:31PM 37.1928 -117.0319 149° Southeast 456 525 33,000  Level Los Angeles Center
06:32PM 37.0831 -116.9519 150° Southeast 457 526 33,000  Level Los Angeles Center
06:33PM 37.0383 -116.9214 151° Southeast 455 524 33,000  Level Oakland Center
06:33PM 36.9736 -116.8714 148° Southeast 457 526 33,000  Level Los Angeles Center
06:34PM 36.8633 -116.7914 150° Southeast 458 527 33,000 -360 Level Los Angeles Center
06:35PM 36.7644 -116.6947 142° Southeast 455 524 32,300 -1,740 Descending Los Angeles Center
06:36PM 36.6825 -116.5767 131° Southeast 452 520 29,500 -2,520 Descending Los Angeles Center
06:38PM 36.6019 -116.4631 131° Southeast 441 507 27,100 -2,280 Descending Los Angeles Center
06:39PM 36.5261 -116.3536 131° Southeast 424 488 24,900 -2,460 Descending Los Angeles Center
06:40PM 36.4344 -116.2264 132° Southeast 413 475 22,100 -2,460 Descending Los Angeles Center
06:40PM 36.4078 -116.1925 134° Southeast 411 473 21,400 -2,280 Descending Los Angeles Center
06:41PM 36.3586 -116.1172 129° Southeast 398 458 19,800 -2,220 Descending Los Angeles Center
06:42PM 36.2747 -116.0083 134° Southeast 379 436 17,400 -1,620 Descending Los Angeles Center
06:43PM 36.2192 -115.9247 129° Southeast 373 429 16,500 -720 Descending Los Angeles Center
06:44PM 36.1722 -115.8094 117° Southeast 348 400 16,100 -720 Descending Los Angeles Center
06:45PM 36.1278 -115.6806 113° Southeast 345 397 15,000 -1,380 Descending Los Angeles Center
06:46PM 36.0972 -115.5819 111° Southeast 344 396 13,300 -1,800 Descending Los Angeles Center
06:47PM 36.0667 -115.4847 111° Southeast 339 390 11,600 -1,140 Descending Los Angeles Center
06:48PM 36.0339 -115.3833 112° Southeast 327 376 11,000 -780 Descending Los Angeles Center
06:49PM 36.0231 -115.2708 97° East 282 325 10,000 -1,200 Descending Los Angeles Center
06:50PM 36.0153 -115.1669 95° East 284 327 8,600 -1,020 Descending Los Angeles Center
06:51PM 36.0097 -115.0811 95° East 259 298 8,000 -1,620 Descending Los Angeles Center
06:52PM 36.0206 -115.0031 80° East 242 278 5,500 -2,100 Descending Los Angeles Center
06:53PM 36.0750 -115.0247 342° North 217 250 3,800 -1,320 Descending Los Angeles Center
06:54PM 36.0739 -115.0892 269° West 158 182 2,700 -840 Descending Los Angeles Center
06:55PM 36.0739 -115.1311 270° West 167 192 2,100 -600 Descending Los Angeles Center
06:57PM 36.0667 -115.1500 270° West  Level FlightAware Approximate